createdAt,value
2018-09-28T00:02:11.534Z,13.47
2018-09-28T00:04:40.352Z,8.87
2018-09-28T00:07:09.223Z,8.60
2018-09-28T00:09:38.062Z,8.00
2018-09-28T00:12:06.909Z,9.90
2018-09-28T00:14:35.716Z,11.00
2018-09-28T00:17:04.540Z,11.65
2018-09-28T00:19:33.393Z,12.67
2018-09-28T00:22:02.250Z,14.17
2018-09-28T00:24:31.082Z,13.70
2018-09-28T00:26:59.925Z,16.00
2018-09-28T00:29:28.738Z,12.33
2018-09-28T00:31:57.610Z,13.07
2018-09-28T00:34:26.529Z,14.70
2018-09-28T00:36:55.393Z,16.30
2018-09-28T00:39:24.224Z,17.13
2018-09-28T00:41:53.070Z,17.60
2018-09-28T00:44:21.936Z,18.13
2018-09-28T00:46:50.766Z,18.87
2018-09-28T00:49:19.615Z,19.90
2018-09-28T00:51:48.438Z,16.47
2018-09-28T00:54:17.265Z,14.30
2018-09-28T00:56:46.130Z,16.20
2018-09-28T00:59:14.970Z,13.57
2018-09-28T01:01:43.799Z,12.47
2018-09-28T01:04:12.624Z,16.80
2018-09-28T01:06:41.470Z,16.97
2018-09-28T01:09:12.390Z,17.13
2018-09-28T01:11:41.216Z,15.50
2018-09-28T01:14:10.031Z,14.93
2018-09-28T01:16:38.861Z,17.73
2018-09-28T01:19:07.692Z,21.17
2018-09-28T01:21:36.557Z,17.77
2018-09-28T01:24:05.434Z,19.93
2018-09-28T01:26:34.263Z,22.20
2018-09-28T01:29:03.112Z,15.40
2018-09-28T01:31:32.174Z,15.30
2018-09-28T01:34:01.070Z,20.27
2018-09-28T01:36:29.920Z,18.83
2018-09-28T01:38:58.741Z,16.47
2018-09-28T01:41:27.618Z,14.53
2018-09-28T01:43:56.480Z,15.67
2018-09-28T01:46:25.365Z,17.63
2018-09-28T01:48:54.170Z,17.07
2018-09-28T01:51:22.990Z,15.80
2018-09-28T01:53:51.845Z,18.93
2018-09-28T01:56:20.684Z,17.87
2018-09-28T01:58:49.537Z,17.77
2018-09-28T02:01:18.369Z,16.90
2018-09-28T02:03:47.213Z,17.60
2018-09-28T02:06:16.060Z,18.90
2018-09-28T02:08:44.876Z,15.33
2018-09-28T02:11:13.713Z,15.47
2018-09-28T02:13:42.550Z,17.83
2018-09-28T02:16:11.503Z,17.00
2018-09-28T02:18:40.319Z,17.42
2018-09-28T02:21:09.191Z,18.17
2018-09-28T02:23:38.012Z,17.73
2018-09-28T02:26:07.005Z,18.50
2018-09-28T02:28:35.828Z,16.07
2018-09-28T02:31:04.710Z,16.27
2018-09-28T02:33:33.542Z,18.03
2018-09-28T02:36:02.392Z,14.83
2018-09-28T02:38:31.264Z,18.93
2018-09-28T02:41:00.144Z,16.70
2018-09-28T02:43:29.009Z,15.63
2018-09-28T02:45:57.853Z,17.27
2018-09-28T02:48:26.721Z,16.77
2018-09-28T02:50:55.567Z,15.80
2018-09-28T02:53:24.381Z,18.15
2018-09-28T02:55:53.240Z,14.27
2018-09-28T02:58:22.088Z,15.23
2018-09-28T03:00:50.927Z,16.30
2018-09-28T03:03:19.769Z,19.30
2018-09-28T03:05:48.589Z,20.33
2018-09-28T03:08:17.434Z,15.67
2018-09-28T03:10:46.293Z,22.67
2018-09-28T03:13:15.150Z,17.07
2018-09-28T03:15:44.005Z,17.70
2018-09-28T03:18:12.829Z,19.30
2018-09-28T03:20:41.707Z,21.50
2018-09-28T03:23:10.554Z,22.30
2018-09-28T03:25:39.374Z,28.60
2018-09-28T03:28:08.208Z,30.20
2018-09-28T03:30:37.054Z,29.47
2018-09-28T03:33:05.913Z,32.17
2018-09-28T03:35:34.762Z,31.07
2018-09-28T03:38:03.700Z,32.97
2018-09-28T03:40:32.568Z,39.00
2018-09-28T03:43:01.354Z,33.70
2018-09-28T03:45:30.195Z,33.60
2018-09-28T03:47:59.060Z,36.47
2018-09-28T03:50:27.921Z,38.10
2018-09-28T03:52:56.787Z,37.40
2018-09-28T03:55:25.641Z,38.43
2018-09-28T03:57:54.460Z,33.20
2018-09-28T04:00:23.334Z,37.33
2018-09-28T04:02:52.228Z,32.43
2018-09-28T04:05:21.036Z,31.47
2018-09-28T04:07:49.875Z,34.20
2018-09-28T04:10:18.728Z,38.60
2018-09-28T04:12:47.586Z,37.87
2018-09-28T04:15:16.516Z,26.97
2018-09-28T04:17:45.250Z,33.43
2018-09-28T04:20:14.108Z,30.00
2018-09-28T04:22:42.952Z,34.63
2018-09-28T04:25:11.781Z,20.87
2018-09-28T04:27:40.624Z,17.67
2018-09-28T04:30:09.460Z,15.43
2018-09-28T04:32:38.333Z,15.47
2018-09-28T04:35:07.182Z,11.40
2018-09-28T04:37:36.022Z,10.97
2018-09-28T04:40:04.846Z,9.90
2018-09-28T04:42:33.664Z,10.70
2018-09-28T04:45:02.526Z,10.73
2018-09-28T04:47:31.360Z,11.43
2018-09-28T04:50:00.277Z,7.20
2018-09-28T04:52:29.209Z,10.60
2018-09-28T04:54:58.023Z,7.60
2018-09-28T04:57:26.836Z,9.30
2018-09-28T04:59:55.674Z,14.60
2018-09-28T05:02:24.497Z,13.47
2018-09-28T05:04:53.301Z,15.98
2018-09-28T05:07:22.161Z,9.87
2018-09-28T05:09:51.060Z,11.87
2018-09-28T05:12:19.927Z,12.00
2018-09-28T05:14:48.782Z,11.40
2018-09-28T05:17:17.625Z,9.83
2018-09-28T05:19:46.481Z,10.77
2018-09-28T05:22:15.312Z,8.53
2018-09-28T05:24:44.145Z,11.77
2018-09-28T05:27:12.997Z,11.60
2018-09-28T05:29:41.864Z,13.57
2018-09-28T05:32:10.781Z,10.00
2018-09-28T05:34:39.621Z,14.20
2018-09-28T05:37:08.499Z,16.50
2018-09-28T05:39:37.313Z,6.97
2018-09-28T05:42:06.127Z,11.83
2018-09-28T05:44:34.928Z,16.80
2018-09-28T05:47:03.788Z,17.47
2018-09-28T05:49:32.592Z,14.27
2018-09-28T05:52:01.443Z,11.20
2018-09-28T05:54:30.245Z,15.63
2018-09-28T05:56:59.078Z,13.70
2018-09-28T05:59:45.605Z,11.40
2018-09-28T06:02:32.106Z,12.87
2018-09-28T06:05:18.595Z,12.77
2018-09-28T06:07:47.371Z,11.57
2018-09-28T06:10:16.262Z,13.50
2018-09-28T06:12:45.089Z,12.70
2018-09-28T06:15:13.925Z,13.97
2018-09-28T06:17:42.738Z,12.40
2018-09-28T06:20:11.631Z,14.80
2018-09-28T06:22:40.466Z,16.77
2018-09-28T06:25:09.290Z,9.57
2018-09-28T06:27:38.161Z,10.73
2018-09-28T06:30:07.059Z,9.23
2018-09-28T06:32:35.862Z,15.77
2018-09-28T06:35:04.687Z,18.80
2018-09-28T06:37:33.531Z,14.60
2018-09-28T06:40:02.360Z,17.97
2018-09-28T06:42:31.287Z,15.58
2018-09-28T06:45:00.105Z,15.57
2018-09-28T06:47:28.943Z,14.37
2018-09-28T06:49:57.782Z,14.23
2018-09-28T06:52:26.850Z,12.63
2018-09-28T06:54:55.685Z,18.87
2018-09-28T06:57:24.512Z,15.40
2018-09-28T06:59:53.424Z,15.07
2018-09-28T07:02:22.199Z,16.87
2018-09-28T07:04:51.001Z,14.13
2018-09-28T07:07:19.920Z,11.10
2018-09-28T07:09:48.725Z,14.07
2018-09-28T07:12:17.633Z,16.77
2018-09-28T07:14:46.396Z,13.60
2018-09-28T07:17:15.243Z,15.67
2018-09-28T07:19:44.066Z,17.37
2018-09-28T07:22:12.946Z,14.20
2018-09-28T07:24:41.879Z,14.18
2018-09-28T07:27:10.618Z,15.80
2018-09-28T07:29:39.515Z,16.33
2018-09-28T07:32:08.296Z,13.87
2018-09-28T07:34:37.143Z,12.70
2018-09-28T07:37:06.125Z,17.53
2018-09-28T07:39:34.818Z,12.60
2018-09-28T07:42:03.753Z,13.70
2018-09-28T07:44:32.647Z,12.60
2018-09-28T07:47:01.478Z,14.33
2018-09-28T07:49:30.294Z,14.23
2018-09-28T07:51:59.136Z,17.17
2018-09-28T07:54:28.726Z,16.67
2018-09-28T07:56:57.561Z,14.63
2018-09-28T07:59:26.392Z,17.80
2018-09-28T08:01:55.235Z,14.13
2018-09-28T08:04:24.071Z,16.83
2018-09-28T08:06:52.898Z,15.53
2018-09-28T08:09:21.749Z,17.50
2018-09-28T08:11:50.610Z,15.00
2018-09-28T08:14:19.498Z,13.50
2018-09-28T08:16:48.398Z,13.67
2018-09-28T08:19:17.286Z,16.60
2018-09-28T08:21:46.152Z,17.17
2018-09-28T08:24:14.992Z,15.93
2018-09-28T08:26:43.851Z,13.07
2018-09-28T08:29:12.700Z,14.27
2018-09-28T08:31:41.532Z,10.60
2018-09-28T08:34:10.352Z,14.65
2018-09-28T08:36:39.260Z,13.87
2018-09-28T08:39:08.705Z,9.30
2018-09-28T08:41:37.554Z,11.40
2018-09-28T08:44:06.378Z,13.10
2018-09-28T08:46:35.218Z,11.97
2018-09-28T08:49:04.611Z,10.20
2018-09-28T08:51:33.457Z,10.73
2018-09-28T08:54:02.331Z,10.87
2018-09-28T08:56:31.251Z,12.53
2018-09-28T08:59:00.099Z,7.43
2018-09-28T09:01:28.945Z,12.07
2018-09-28T09:03:57.772Z,11.40
2018-09-28T09:06:26.651Z,11.13
2018-09-28T09:08:55.486Z,9.10
2018-09-28T09:11:24.346Z,11.97
2018-09-28T09:13:53.192Z,13.17
2018-09-28T09:16:22.101Z,14.95
2018-09-28T09:18:50.939Z,9.40
2018-09-28T09:21:19.785Z,10.90
2018-09-28T09:23:48.654Z,15.32
2018-09-28T09:26:17.492Z,7.67
2018-09-28T09:28:46.311Z,9.13
2018-09-28T09:31:15.197Z,6.37
2018-09-28T09:33:44.089Z,10.57
2018-09-28T09:36:12.907Z,10.60
2018-09-28T09:38:41.719Z,5.73
2018-09-28T09:41:10.657Z,8.50
2018-09-28T09:43:39.479Z,7.65
2018-09-28T09:46:08.468Z,8.80
2018-09-28T09:48:37.362Z,10.28
2018-09-28T09:51:06.127Z,10.10
2018-09-28T09:53:34.953Z,10.68
2018-09-28T09:56:03.841Z,7.97
2018-09-28T09:58:32.629Z,9.45
2018-09-28T10:01:08.169Z,9.18
2018-09-28T10:03:50.471Z,6.75
2018-09-28T10:06:22.621Z,8.33
2018-09-28T10:08:51.439Z,9.13
2018-09-28T10:11:20.304Z,6.28
2018-09-28T10:13:49.136Z,9.15
2018-09-28T10:16:17.958Z,6.55
2018-09-28T10:18:46.843Z,8.73
2018-09-28T10:21:15.774Z,8.18
2018-09-28T10:23:44.543Z,4.90
2018-09-28T10:26:13.371Z,8.08
2018-09-28T10:28:42.268Z,9.08
2018-09-28T10:31:11.049Z,10.65
2018-09-28T10:33:40.117Z,11.05
2018-09-28T10:36:08.896Z,8.13
2018-09-28T10:38:37.763Z,8.60
2018-09-28T10:41:06.762Z,5.72
2018-09-28T10:43:35.489Z,10.13
2018-09-28T10:46:04.398Z,10.70
2018-09-28T10:48:33.242Z,8.40
2018-09-28T10:51:02.087Z,5.42
2018-09-28T10:53:30.921Z,11.00
2018-09-28T10:55:59.742Z,8.63
2018-09-28T10:58:28.640Z,8.53
2018-09-28T11:00:57.407Z,7.65
2018-09-28T11:03:26.240Z,9.80
2018-09-28T11:05:55.116Z,9.98
2018-09-28T11:08:23.935Z,8.23
2018-09-28T11:10:52.715Z,9.83
2018-09-28T11:13:21.530Z,8.43
2018-09-28T11:15:50.397Z,9.38
2018-09-28T11:18:19.169Z,10.05
2018-09-28T11:20:48.022Z,8.75
2018-09-28T11:23:16.850Z,10.00
2018-09-28T11:25:45.670Z,7.65
2018-09-28T11:28:14.489Z,8.55
2018-09-28T11:30:43.356Z,8.28
2018-09-28T11:33:12.178Z,5.47
2018-09-28T11:35:41.009Z,7.87
2018-09-28T11:38:09.841Z,9.48
2018-09-28T11:40:38.712Z,4.50
2018-09-28T11:43:07.628Z,10.08
2018-09-28T11:45:36.398Z,6.55
2018-09-28T11:48:05.206Z,5.15
2018-09-28T11:50:34.053Z,8.40
2018-09-28T11:53:02.896Z,7.22
2018-09-28T11:55:31.739Z,7.72
2018-09-28T11:58:00.573Z,10.03
2018-09-28T12:00:29.422Z,6.85
2018-09-28T12:02:58.241Z,7.45
2018-09-28T12:05:27.088Z,8.73
2018-09-28T12:07:55.917Z,10.23
2018-09-28T12:10:24.730Z,7.90
2018-09-28T12:12:53.575Z,7.30
2018-09-28T12:15:22.500Z,10.10
2018-09-28T12:17:51.271Z,7.30
2018-09-28T12:20:20.117Z,7.08
2018-09-28T12:22:48.953Z,7.60
2018-09-28T12:25:17.767Z,7.03
2018-09-28T12:27:46.693Z,7.07
2018-09-28T12:30:15.459Z,7.63
2018-09-28T12:32:44.247Z,6.85
2018-09-28T12:35:13.065Z,4.10
2018-09-28T12:37:41.912Z,5.70
2018-09-28T12:40:10.728Z,5.70
2018-09-28T12:42:39.615Z,5.80
2018-09-28T12:45:08.461Z,6.57
2018-09-28T12:47:37.249Z,7.47
2018-09-28T12:50:06.166Z,5.03
2018-09-28T12:52:34.984Z,6.17
2018-09-28T12:55:03.790Z,4.73
2018-09-28T12:57:32.675Z,6.97
2018-09-28T13:00:01.512Z,6.10
2018-09-28T13:02:30.399Z,8.80
2018-09-28T13:04:59.304Z,3.60
2018-09-28T13:07:28.125Z,5.05
2018-09-28T13:09:56.957Z,4.40
2018-09-28T13:12:25.891Z,4.93
2018-09-28T13:14:54.761Z,6.87
2018-09-28T13:17:23.438Z,6.83
2018-09-28T13:19:52.258Z,8.98
2018-09-28T13:22:21.140Z,8.37
2018-09-28T13:24:50.020Z,5.47
2018-09-28T13:27:18.756Z,7.10
2018-09-28T13:29:47.590Z,6.17
2018-09-28T13:32:16.545Z,9.43
2018-09-28T13:34:45.236Z,7.27
2018-09-28T13:37:14.081Z,7.63
2018-09-28T13:39:42.895Z,7.42
2018-09-28T13:42:11.802Z,5.53
2018-09-28T13:44:40.704Z,6.97
2018-09-28T13:47:09.738Z,7.73
2018-09-28T13:49:38.548Z,9.50
2018-09-28T13:52:07.426Z,7.47
2018-09-28T13:54:36.263Z,6.93
2018-09-28T13:57:05.048Z,6.13
2018-09-28T13:59:33.913Z,6.60
2018-09-28T14:02:02.768Z,9.25
2018-09-28T14:04:31.649Z,11.73
2018-09-28T14:07:00.663Z,9.37
2018-09-28T14:09:29.280Z,10.82
2018-09-28T14:11:58.108Z,10.63
2018-09-28T14:14:27.020Z,7.13
2018-09-28T14:16:55.811Z,3.90
2018-09-28T14:19:24.670Z,5.43
2018-09-28T14:21:53.520Z,4.97
2018-09-28T14:24:22.489Z,8.07
2018-09-28T14:26:51.326Z,4.87
2018-09-28T14:29:20.077Z,6.70
2018-09-28T14:31:48.946Z,4.97
2018-09-28T14:34:17.814Z,4.83
2018-09-28T14:36:46.705Z,5.53
2018-09-28T14:39:15.491Z,6.70
2018-09-28T14:41:44.341Z,7.40
2018-09-28T14:44:13.265Z,3.37
2018-09-28T14:46:42.108Z,5.80
2018-09-28T14:49:11.033Z,5.63
2018-09-28T14:51:39.714Z,5.27
2018-09-28T14:54:08.608Z,8.53
2018-09-28T14:56:37.457Z,5.80
2018-09-28T14:59:06.251Z,6.47
2018-09-28T15:01:35.090Z,3.87
2018-09-28T15:04:03.955Z,5.00
2018-09-28T15:06:32.854Z,5.93
2018-09-28T15:09:01.618Z,7.97
2018-09-28T15:11:32.630Z,7.00
2018-09-28T15:14:01.503Z,6.67
2018-09-28T15:16:30.358Z,8.50
2018-09-28T15:18:59.160Z,7.13
2018-09-28T15:21:27.978Z,7.93
2018-09-28T15:23:56.862Z,7.43
2018-09-28T15:26:25.679Z,8.57
2018-09-28T15:28:54.525Z,7.30
2018-09-28T15:31:23.341Z,7.30
2018-09-28T15:33:52.203Z,7.23
2018-09-28T15:36:21.084Z,4.90
2018-09-28T15:38:49.923Z,8.00
2018-09-28T15:41:18.903Z,9.73
2018-09-28T15:43:47.757Z,4.90
2018-09-28T15:46:16.619Z,9.27
2018-09-28T15:48:45.442Z,6.07
2018-09-28T15:51:14.256Z,7.60
2018-09-28T15:53:43.087Z,5.90
2018-09-28T15:56:11.919Z,6.03
2018-09-28T15:58:40.756Z,7.70
2018-09-28T16:01:09.597Z,7.47
2018-09-28T16:03:38.425Z,4.83
2018-09-28T16:06:07.265Z,5.83
2018-09-28T16:08:36.124Z,4.70
2018-09-28T16:11:04.970Z,5.70
2018-09-28T16:13:33.802Z,6.60
2018-09-28T16:16:02.707Z,6.20
2018-09-28T16:18:31.631Z,6.17
2018-09-28T16:21:00.490Z,5.40
2018-09-28T16:23:29.330Z,6.77
2018-09-28T16:25:58.388Z,6.00
2018-09-28T16:28:27.250Z,3.60
2018-09-28T16:30:56.089Z,5.63
2018-09-28T16:33:25.093Z,4.13
2018-09-28T16:35:53.951Z,5.73
2018-09-28T16:38:22.797Z,5.17
2018-09-28T16:40:51.632Z,5.03
2018-09-28T16:43:20.453Z,6.37
2018-09-28T16:45:49.332Z,4.83
2018-09-28T16:48:18.138Z,7.37
2018-09-28T16:50:47.008Z,5.53
2018-09-28T16:53:15.823Z,4.40
2018-09-28T16:55:44.681Z,3.97
2018-09-28T16:58:13.492Z,7.83
2018-09-28T17:00:42.379Z,8.27
2018-09-28T17:03:11.224Z,5.90
2018-09-28T17:05:40.049Z,5.47
2018-09-28T17:08:08.924Z,5.40
2018-09-28T17:10:38.053Z,3.63
2018-09-28T17:13:06.907Z,6.77
2018-09-28T17:15:35.745Z,4.13
2018-09-28T17:18:04.679Z,5.85
2018-09-28T17:20:33.492Z,5.17
2018-09-28T17:23:02.352Z,6.93
2018-09-28T17:25:31.172Z,3.83
2018-09-28T17:28:00.025Z,4.57
2018-09-28T17:30:28.852Z,5.13
2018-09-28T17:32:57.712Z,7.13
2018-09-28T17:35:26.549Z,9.67
2018-09-28T17:37:55.432Z,3.47
2018-09-28T17:40:24.312Z,5.67
2018-09-28T17:42:53.148Z,8.27
2018-09-28T17:45:21.989Z,9.23
2018-09-28T17:47:50.866Z,5.40
2018-09-28T17:50:19.748Z,7.40
2018-09-28T17:52:48.571Z,6.03
2018-09-28T17:55:17.409Z,6.33
2018-09-28T17:57:46.250Z,5.87
2018-09-28T18:00:15.518Z,4.77
2018-09-28T18:02:44.359Z,7.17
2018-09-28T18:05:13.167Z,6.00
2018-09-28T18:07:42.006Z,4.23
2018-09-28T18:10:10.901Z,3.90
2018-09-28T18:12:39.739Z,7.10
2018-09-28T18:15:08.619Z,4.63
2018-09-28T18:17:37.479Z,7.33
2018-09-28T18:20:06.321Z,6.40
2018-09-28T18:22:35.145Z,6.10
2018-09-28T18:25:03.972Z,3.33
2018-09-28T18:27:32.890Z,6.50
2018-09-28T18:30:01.825Z,8.13
2018-09-28T18:32:30.644Z,8.07
2018-09-28T18:34:59.505Z,8.33
2018-09-28T18:37:28.395Z,6.93
2018-09-28T18:39:57.246Z,10.77
2018-09-28T18:42:26.060Z,8.00
2018-09-28T18:44:58.280Z,7.97
2018-09-28T18:47:27.121Z,8.53
2018-09-28T18:49:56.347Z,7.33
2018-09-28T18:52:25.533Z,6.85
2018-09-28T18:54:54.654Z,6.13
2018-09-28T18:57:24.121Z,7.00
2018-09-28T18:59:52.966Z,6.20
2018-09-28T19:02:21.826Z,6.13
2018-09-28T19:04:50.648Z,8.77
2018-09-28T19:07:19.476Z,6.57
2018-09-28T19:09:48.340Z,10.37
2018-09-28T19:12:17.187Z,7.90
2018-09-28T19:14:45.983Z,8.47
2018-09-28T19:17:14.823Z,6.00
2018-09-28T19:19:43.672Z,6.07
2018-09-28T19:22:12.527Z,6.93
2018-09-28T19:24:41.399Z,6.13
2018-09-28T19:27:10.218Z,8.73
2018-09-28T19:29:39.152Z,8.90
2018-09-28T19:32:07.969Z,5.93
2018-09-28T19:34:36.849Z,7.27
2018-09-28T19:37:05.713Z,7.97
2018-09-28T19:39:34.577Z,7.40
2018-09-28T19:42:03.434Z,5.77
2018-09-28T19:44:32.253Z,8.23
2018-09-28T19:47:01.097Z,8.37
2018-09-28T19:49:29.945Z,7.93
2018-09-28T19:51:58.844Z,7.23
2018-09-28T19:54:27.706Z,5.47
2018-09-28T19:56:56.537Z,6.83
2018-09-28T19:59:25.376Z,9.13
2018-09-28T20:01:54.273Z,5.33
2018-09-28T20:04:23.207Z,10.63
2018-09-28T20:06:52.027Z,7.83
2018-09-28T20:09:20.874Z,8.27
2018-09-28T20:11:49.697Z,9.17
2018-09-28T20:14:18.518Z,8.77
2018-09-28T20:16:47.374Z,6.57
2018-09-28T20:19:16.196Z,6.70
2018-09-28T20:21:45.085Z,6.00
2018-09-28T20:24:13.941Z,9.93
2018-09-28T20:26:42.791Z,7.70
2018-09-28T20:29:11.635Z,5.07
2018-09-28T20:31:40.495Z,8.43
2018-09-28T20:34:09.332Z,5.63
2018-09-28T20:36:38.164Z,7.67
2018-09-28T20:39:09.496Z,9.45
2018-09-28T20:41:38.338Z,6.07
2018-09-28T20:44:07.160Z,7.77
2018-09-28T20:46:36.810Z,7.17
2018-09-28T20:49:05.884Z,7.47
2018-09-28T20:51:34.663Z,8.27
2018-09-28T20:54:03.512Z,10.35
2018-09-28T20:56:32.361Z,9.07
2018-09-28T20:59:01.207Z,5.90
2018-09-28T21:01:30.029Z,9.57
2018-09-28T21:03:58.887Z,8.50
2018-09-28T21:06:27.725Z,7.93
2018-09-28T21:08:56.581Z,11.93
2018-09-28T21:11:25.484Z,14.37
2018-09-28T21:13:54.338Z,10.68
2018-09-28T21:16:23.215Z,8.00
2018-09-28T21:18:52.043Z,6.50
2018-09-28T21:21:20.890Z,8.90
2018-09-28T21:23:49.741Z,12.20
2018-09-28T21:26:18.574Z,5.57
2018-09-28T21:28:47.380Z,7.30
2018-09-28T21:31:16.228Z,6.10
2018-09-28T21:33:45.066Z,7.97
2018-09-28T21:36:13.904Z,11.10
2018-09-28T21:38:42.755Z,8.17
2018-09-28T21:41:11.585Z,10.10
2018-09-28T21:43:40.449Z,10.00
2018-09-28T21:46:09.327Z,10.00
2018-09-28T21:48:38.157Z,8.70
2018-09-28T21:51:07.056Z,6.03
2018-09-28T21:53:35.903Z,5.67
2018-09-28T21:56:04.729Z,6.00
2018-09-28T21:58:33.556Z,10.25
2018-09-28T22:01:02.410Z,10.00
2018-09-28T22:03:31.228Z,8.93
2018-09-28T22:06:00.071Z,8.53
2018-09-28T22:08:28.896Z,7.67
2018-09-28T22:10:57.749Z,7.20
2018-09-28T22:13:26.592Z,8.97
2018-09-28T22:15:55.415Z,8.97
2018-09-28T22:18:24.316Z,10.80
2018-09-28T22:20:53.180Z,9.00
2018-09-28T22:23:22.082Z,7.53
2018-09-28T22:25:50.891Z,9.05
2018-09-28T22:28:19.707Z,6.72
2018-09-28T22:30:48.542Z,7.00
2018-09-28T22:33:17.357Z,6.50
2018-09-28T22:35:46.234Z,9.90
2018-09-28T22:38:15.061Z,8.40
2018-09-28T22:40:43.988Z,7.70
2018-09-28T22:43:12.816Z,12.13
2018-09-28T22:45:41.671Z,9.70
2018-09-28T22:48:10.492Z,5.07
2018-09-28T22:50:39.339Z,8.27
2018-09-28T22:53:08.148Z,5.90
2018-09-28T22:55:36.988Z,6.67
2018-09-28T22:58:05.837Z,7.87
2018-09-28T23:00:34.674Z,12.60
2018-09-28T23:03:03.510Z,11.08
2018-09-28T23:05:32.422Z,8.00
2018-09-28T23:08:01.197Z,6.90
2018-09-28T23:10:30.058Z,8.73
2018-09-28T23:12:58.845Z,8.93
2018-09-28T23:15:27.660Z,7.17
2018-09-28T23:17:56.469Z,6.80
2018-09-28T23:20:25.291Z,7.50
2018-09-28T23:22:54.225Z,4.13
2018-09-28T23:25:23.063Z,6.17
2018-09-28T23:27:51.905Z,10.70
2018-09-28T23:30:20.726Z,5.57
2018-09-28T23:32:49.584Z,5.03
2018-09-28T23:35:18.415Z,5.50
2018-09-28T23:37:47.270Z,8.20
2018-09-28T23:40:16.076Z,5.57
2018-09-28T23:42:44.902Z,5.73
2018-09-28T23:45:13.723Z,8.97
2018-09-28T23:47:42.622Z,7.83
2018-09-28T23:50:11.376Z,13.00
2018-09-28T23:52:40.216Z,9.10
2018-09-28T23:55:09.085Z,7.43
2018-09-28T23:57:37.931Z,7.00
